Airfield :
LOGIN :

Register | Disclaimer

   EN    FR    IT 

 










Legend :    VFR   Marginal VFR   IFR   Intensive IFR   Very Intensive IFR
Visi :
Ceiling :
>= 8 km
>= 3000ft
5 to 8 km
1000 to 3000 ft
1500m to 5 km
500 to 1000 ft
800 to 1500m
200 to 500 ft
< 800m
< 200 ft
Symbols :   Thunderstorms  Fog  Heavy snow  Heavy precipitations  Wind > 20 kt
SIGMETs :     Misc.  Thunderstorms  Icing  Turbulence  Mountain Waves  Volcanic Ashes






- Airport Elevation : 400 ft
- IATA code : BNX


LQBK - Banja Luka

CURRENT METAR :
  • 221300Z 22007KT 190V280 CAVOK 19/01 Q1017 NOSIG

EXPIRED METARs :
  • 221230Z 25006KT 210V300 CAVOK 21/03 Q1017 NOSIG
  • 221200Z 27004KT 210V010 CAVOK 19/01 Q1017 NOSIG
  • 221130Z 27008KT CAVOK 19/01 Q1017 NOSIG
  • 221100Z VRB03KT CAVOK 19/01 Q1018 NOSIG
  • 221030Z VRB06KT CAVOK 19/00 Q1018 NOSIG

TAF TAF LQBK
Valid from the 22 at 12:00 until the 23 at 12:00 UTC


221100Z 2212/2312 25006KT CAVOK TX22/2214Z TN07/2304Z
PROB40
TEMPO 2218/2224 19012KT
PROB40
TEMPO 2300/2306 02010KT RA
PROB40
TEMPO 2310/2312 04010KT



MET'MAP, your aeronautical weather chart ! - Copyright ORBIFLY December 2007 - Disclaimer

ORBIFLY MET'MAP TEAM :

Programming & Development : Alexandra Zaïnal
Concept & original design : Baudouin d'Aumeries
Assistance for programming : Marc-Olivier Méhu
Technical & hardware support : Manuel Goepfert

Contact : metmap@orbifly.com




SOURCES & CREDITS :

   NOAA